sensor_id;sensor_type;location;lat;lon;timestamp;pressure;altitude;pressure_sealevel;temperature;humidity
16525;BME280;8375;33.594;-117.718;2023-09-19T00:00:46;100135.75;;;25.68;49.47
16525;BME280;8375;33.594;-117.718;2023-09-19T00:03:16;100132.25;;;25.68;47.87
16525;BME280;8375;33.594;-117.718;2023-09-19T00:05:45;100132.47;;;25.47;48.79
16525;BME280;8375;33.594;-117.718;2023-09-19T00:08:14;100129.28;;;25.57;48.01
16525;BME280;8375;33.594;-117.718;2023-09-19T00:10:43;100126.72;;;25.44;49.17
16525;BME280;8375;33.594;-117.718;2023-09-19T00:13:14;100129.66;;;25.36;48.77
16525;BME280;8375;33.594;-117.718;2023-09-19T00:15:44;100126.56;;;25.39;49.24
16525;BME280;8375;33.594;-117.718;2023-09-19T00:18:15;100128.44;;;25.38;49.75
16525;BME280;8375;33.594;-117.718;2023-09-19T00:20:44;100121.69;;;25.36;49.57
16525;BME280;8375;33.594;-117.718;2023-09-19T00:23:14;100115.47;;;25.23;50.76
16525;BME280;8375;33.594;-117.718;2023-09-19T00:25:43;100114.72;;;25.16;49.42
16525;BME280;8375;33.594;-117.718;2023-09-19T00:28:13;100120.13;;;25.02;49.12
16525;BME280;8375;33.594;-117.718;2023-09-19T00:30:43;100120.22;;;24.89;49.11
16525;BME280;8375;33.594;-117.718;2023-09-19T00:33:11;100119.09;;;24.78;49.30
16525;BME280;8375;33.594;-117.718;2023-09-19T00:35:48;100120.91;;;24.78;49.63
16525;BME280;8375;33.594;-117.718;2023-09-19T00:38:16;100120.34;;;24.69;49.27
16525;BME280;8375;33.594;-117.718;2023-09-19T00:40:48;100115.44;;;24.66;50.14
16525;BME280;8375;33.594;-117.718;2023-09-19T00:43:19;100113.69;;;24.53;50.69
16525;BME280;8375;33.594;-117.718;2023-09-19T00:45:51;100119.84;;;24.46;51.57
16525;BME280;8375;33.594;-117.718;2023-09-19T00:48:21;100117.03;;;24.35;52.73
16525;BME280;8375;33.594;-117.718;2023-09-19T00:50:51;100116.50;;;24.19;53.31
16525;BME280;8375;33.594;-117.718;2023-09-19T00:53:21;100107.53;;;24.13;54.21
16525;BME280;8375;33.594;-117.718;2023-09-19T00:55:52;100116.13;;;24.09;55.03
16525;BME280;8375;33.594;-117.718;2023-09-19T00:58:24;100113.72;;;24.00;55.56
16525;BME280;8375;33.594;-117.718;2023-09-19T01:00:58;100112.91;;;23.86;56.57
16525;BME280;8375;33.594;-117.718;2023-09-19T01:03:28;100118.63;;;23.77;56.49
16525;BME280;8375;33.594;-117.718;2023-09-19T01:05:57;100115.19;;;23.56;55.72
16525;BME280;8375;33.594;-117.718;2023-09-19T01:08:27;100110.53;;;23.51;57.61
16525;BME280;8375;33.594;-117.718;2023-09-19T01:11:01;100112.38;;;23.44;58.00
16525;BME280;8375;33.594;-117.718;2023-09-19T01:13:40;100115.03;;;23.31;58.25
16525;BME280;8375;33.594;-117.718;2023-09-19T01:16:16;100111.31;;;23.11;58.51
16525;BME280;8375;33.594;-117.718;2023-09-19T01:18:55;100106.03;;;23.05;58.77
16525;BME280;8375;33.594;-117.718;2023-09-19T01:21:35;100105.63;;;22.94;58.80
16525;BME280;8375;33.594;-117.718;2023-09-19T01:24:32;100110.50;;;22.84;59.86
16525;BME280;8375;33.594;-117.718;2023-09-19T01:27:23;100114.53;;;22.73;60.59
16525;BME280;8375;33.594;-117.718;2023-09-19T01:30:10;100111.25;;;22.71;61.17
16525;BME280;8375;33.594;-117.718;2023-09-19T01:32:42;100103.50;;;22.63;62.62
16525;BME280;8375;33.594;-117.718;2023-09-19T01:35:12;100107.75;;;22.50;62.64
16525;BME280;8375;33.594;-117.718;2023-09-19T01:37:41;100103.63;;;22.34;63.07
16525;BME280;8375;33.594;-117.718;2023-09-19T01:40:11;100112.75;;;22.25;64.91
16525;BME280;8375;33.594;-117.718;2023-09-19T01:42:56;100106.00;;;22.16;64.39
16525;BME280;8375;33.594;-117.718;2023-09-19T01:45:35;100113.06;;;22.08;64.17
16525;BME280;8375;33.594;-117.718;2023-09-19T01:48:18;100108.13;;;21.98;64.69
16525;BME280;8375;33.594;-117.718;2023-09-19T01:50:55;100110.16;;;21.96;65.24
16525;BME280;8375;33.594;-117.718;2023-09-19T01:53:27;100109.31;;;21.89;66.05
16525;BME280;8375;33.594;-117.718;2023-09-19T01:55:57;100107.34;;;21.69;65.97
16525;BME280;8375;33.594;-117.718;2023-09-19T01:58:34;100105.19;;;21.51;66.44
16525;BME280;8375;33.594;-117.718;2023-09-19T02:01:07;100105.25;;;21.30;67.86
16525;BME280;8375;33.594;-117.718;2023-09-19T02:03:39;100111.53;;;21.29;67.30
16525;BME280;8375;33.594;-117.718;2023-09-19T02:06:08;100112.72;;;21.26;67.66
16525;BME280;8375;33.594;-117.718;2023-09-19T02:08:38;100108.69;;;21.08;68.25
16525;BME280;8375;33.594;-117.718;2023-09-19T02:11:06;100106.63;;;21.04;68.37
16525;BME280;8375;33.594;-117.718;2023-09-19T02:13:35;100105.75;;;20.96;68.48
16525;BME280;8375;33.594;-117.718;2023-09-19T02:16:06;100115.66;;;20.94;69.31
16525;BME280;8375;33.594;-117.718;2023-09-19T02:18:35;100110.97;;;20.90;69.23
16525;BME280;8375;33.594;-117.718;2023-09-19T02:21:05;100108.16;;;20.76;68.98
16525;BME280;8375;33.594;-117.718;2023-09-19T02:23:36;100106.56;;;20.60;67.82
16525;BME280;8375;33.594;-117.718;2023-09-19T02:26:05;100119.75;;;20.60;68.17
16525;BME280;8375;33.594;-117.718;2023-09-19T02:28:34;100114.75;;;20.65;70.04
16525;BME280;8375;33.594;-117.718;2023-09-19T02:31:02;100111.47;;;20.63;69.60
16525;BME280;8375;33.594;-117.718;2023-09-19T02:33:33;100116.59;;;20.50;68.85
16525;BME280;8375;33.594;-117.718;2023-09-19T02:36:04;100112.16;;;20.50;69.40
16525;BME280;8375;33.594;-117.718;2023-09-19T02:38:32;100113.31;;;20.48;69.55
16525;BME280;8375;33.594;-117.718;2023-09-19T02:41:01;100117.19;;;20.30;69.66
16525;BME280;8375;33.594;-117.718;2023-09-19T02:43:30;100120.66;;;20.31;71.14
16525;BME280;8375;33.594;-117.718;2023-09-19T02:45:58;100122.34;;;20.38;71.86
16525;BME280;8375;33.594;-117.718;2023-09-19T02:48:29;100118.81;;;20.31;71.70
16525;BME280;8375;33.594;-117.718;2023-09-19T02:51:00;100110.75;;;20.18;72.71
16525;BME280;8375;33.594;-117.718;2023-09-19T02:53:30;100116.47;;;20.06;73.31
16525;BME280;8375;33.594;-117.718;2023-09-19T02:55:59;100115.84;;;20.04;73.55
16525;BME280;8375;33.594;-117.718;2023-09-19T02:58:27;100119.19;;;19.98;74.19
16525;BME280;8375;33.594;-117.718;2023-09-19T03:00:57;100121.19;;;19.96;74.62
16525;BME280;8375;33.594;-117.718;2023-09-19T03:03:26;100122.63;;;19.84;75.37
16525;BME280;8375;33.594;-117.718;2023-09-19T03:05:55;100120.78;;;19.69;77.70
16525;BME280;8375;33.594;-117.718;2023-09-19T03:08:26;100118.25;;;19.61;78.76
16525;BME280;8375;33.594;-117.718;2023-09-19T03:10:54;100128.78;;;19.61;78.91
16525;BME280;8375;33.594;-117.718;2023-09-19T03:13:23;100126.97;;;19.61;79.11
16525;BME280;8375;33.594;-117.718;2023-09-19T03:15:55;100135.50;;;19.63;79.76
16525;BME280;8375;33.594;-117.718;2023-09-19T03:18:24;100138.50;;;19.60;80.46
16525;BME280;8375;33.594;-117.718;2023-09-19T03:20:54;100143.28;;;19.57;80.61
16525;BME280;8375;33.594;-117.718;2023-09-19T03:23:28;100144.28;;;19.56;80.95
16525;BME280;8375;33.594;-117.718;2023-09-19T03:25:57;100142.38;;;19.49;81.64
16525;BME280;8375;33.594;-117.718;2023-09-19T03:28:25;100148.34;;;19.43;82.91
16525;BME280;8375;33.594;-117.718;2023-09-19T03:31:01;100151.31;;;19.40;83.65
16525;BME280;8375;33.594;-117.718;2023-09-19T03:33:29;100156.25;;;19.43;83.92
16525;BME280;8375;33.594;-117.718;2023-09-19T03:36:00;100162.84;;;19.39;84.64
16525;BME280;8375;33.594;-117.718;2023-09-19T03:38:33;100157.28;;;19.34;84.83
16525;BME280;8375;33.594;-117.718;2023-09-19T03:41:02;100168.81;;;19.33;85.55
16525;BME280;8375;33.594;-117.718;2023-09-19T03:43:32;100161.00;;;19.25;86.45
16525;BME280;8375;33.594;-117.718;2023-09-19T03:46:02;100154.94;;;19.24;87.04
16525;BME280;8375;33.594;-117.718;2023-09-19T03:48:32;100163.97;;;19.22;87.38
16525;BME280;8375;33.594;-117.718;2023-09-19T03:51:00;100163.69;;;19.16;87.68
16525;BME280;8375;33.594;-117.718;2023-09-19T03:53:29;100169.28;;;19.13;88.00
16525;BME280;8375;33.594;-117.718;2023-09-19T03:55:59;100166.22;;;19.10;88.42
16525;BME280;8375;33.594;-117.718;2023-09-19T03:58:28;100163.09;;;19.06;88.70
16525;BME280;8375;33.594;-117.718;2023-09-19T04:00:56;100164.28;;;19.03;89.09
16525;BME280;8375;33.594;-117.718;2023-09-19T04:03:26;100169.69;;;19.02;89.68
16525;BME280;8375;33.594;-117.718;2023-09-19T04:06:03;100174.66;;;18.97;89.93
16525;BME280;8375;33.594;-117.718;2023-09-19T04:08:32;100181.06;;;18.94;89.66
16525;BME280;8375;33.594;-117.718;2023-09-19T04:11:03;100181.06;;;18.94;90.04
16525;BME280;8375;33.594;-117.718;2023-09-19T04:13:32;100181.28;;;18.84;90.04
16525;BME280;8375;33.594;-117.718;2023-09-19T04:16:00;100185.25;;;18.80;90.22
16525;BME280;8375;33.594;-117.718;2023-09-19T04:18:30;100182.31;;;18.75;90.79
16525;BME280;8375;33.594;-117.718;2023-09-19T04:21:03;100193.00;;;18.73;91.13
16525;BME280;8375;33.594;-117.718;2023-09-19T04:23:33;100187.09;;;18.71;90.95
16525;BME280;8375;33.594;-117.718;2023-09-19T04:26:03;100191.41;;;18.64;91.96
16525;BME280;8375;33.594;-117.718;2023-09-19T04:28:32;100189.28;;;18.59;92.15
16525;BME280;8375;33.594;-117.718;2023-09-19T04:31:04;100186.84;;;18.58;92.68
16525;BME280;8375;33.594;-117.718;2023-09-19T04:33:34;100184.38;;;18.56;92.64
16525;BME280;8375;33.594;-117.718;2023-09-19T04:36:03;100191.59;;;18.54;92.64
16525;BME280;8375;33.594;-117.718;2023-09-19T04:38:33;100192.41;;;18.55;92.55
16525;BME280;8375;33.594;-117.718;2023-09-19T04:41:04;100193.91;;;18.49;92.54
16525;BME280;8375;33.594;-117.718;2023-09-19T04:43:33;100195.41;;;18.43;92.76
16525;BME280;8375;33.594;-117.718;2023-09-19T04:46:01;100202.97;;;18.38;92.39
16525;BME280;8375;33.594;-117.718;2023-09-19T04:48:33;100212.69;;;18.38;93.03
16525;BME280;8375;33.594;-117.718;2023-09-19T04:51:03;100210.72;;;18.31;92.58
16525;BME280;8375;33.594;-117.718;2023-09-19T04:53:32;100207.44;;;18.29;92.66
16525;BME280;8375;33.594;-117.718;2023-09-19T04:56:01;100199.91;;;18.26;93.35
16525;BME280;8375;33.594;-117.718;2023-09-19T04:58:32;100210.09;;;18.21;93.78
16525;BME280;8375;33.594;-117.718;2023-09-19T05:01:01;100199.75;;;18.20;93.66
16525;BME280;8375;33.594;-117.718;2023-09-19T05:03:30;100207.97;;;18.16;94.11
16525;BME280;8375;33.594;-117.718;2023-09-19T05:05:59;100197.78;;;18.13;94.62
16525;BME280;8375;33.594;-117.718;2023-09-19T05:08:27;100196.66;;;18.08;95.25
16525;BME280;8375;33.594;-117.718;2023-09-19T05:10:56;100197.66;;;18.07;94.45
16525;BME280;8375;33.594;-117.718;2023-09-19T05:13:25;100193.88;;;18.01;94.67
16525;BME280;8375;33.594;-117.718;2023-09-19T05:15:55;100194.03;;;17.99;94.88
16525;BME280;8375;33.594;-117.718;2023-09-19T05:18:24;100193.53;;;17.96;94.92
16525;BME280;8375;33.594;-117.718;2023-09-19T05:20:52;100194.84;;;17.92;95.14
16525;BME280;8375;33.594;-117.718;2023-09-19T05:23:21;100199.94;;;17.93;96.12
16525;BME280;8375;33.594;-117.718;2023-09-19T05:25:50;100187.31;;;17.88;96.00
16525;BME280;8375;33.594;-117.718;2023-09-19T05:28:19;100188.81;;;17.83;96.58
16525;BME280;8375;33.594;-117.718;2023-09-19T05:30:48;100192.41;;;17.82;96.36
16525;BME280;8375;33.594;-117.718;2023-09-19T05:33:19;100194.88;;;17.75;96.83
16525;BME280;8375;33.594;-117.718;2023-09-19T05:35:48;100195.69;;;17.76;97.19
16525;BME280;8375;33.594;-117.718;2023-09-19T05:38:17;100194.06;;;17.74;96.70
16525;BME280;8375;33.594;-117.718;2023-09-19T05:40:46;100196.34;;;17.69;96.67
16525;BME280;8375;33.594;-117.718;2023-09-19T05:43:15;100202.91;;;17.65;97.45
16525;BME280;8375;33.594;-117.718;2023-09-19T05:45:45;100193.56;;;17.63;97.36
16525;BME280;8375;33.594;-117.718;2023-09-19T05:48:14;100196.34;;;17.61;97.26
16525;BME280;8375;33.594;-117.718;2023-09-19T05:50:44;100201.09;;;17.57;97.49
16525;BME280;8375;33.594;-117.718;2023-09-19T05:53:15;100197.69;;;17.57;98.24
16525;BME280;8375;33.594;-117.718;2023-09-19T05:55:45;100199.78;;;17.53;97.95
16525;BME280;8375;33.594;-117.718;2023-09-19T05:58:13;100194.06;;;17.50;97.70
16525;BME280;8375;33.594;-117.718;2023-09-19T06:00:44;100194.88;;;17.50;98.44
16525;BME280;8375;33.594;-117.718;2023-09-19T06:03:14;100194.72;;;17.52;98.38
16525;BME280;8375;33.594;-117.718;2023-09-19T06:05:46;100197.00;;;17.47;98.73
16525;BME280;8375;33.594;-117.718;2023-09-19T06:08:16;100192.75;;;17.45;98.80
16525;BME280;8375;33.594;-117.718;2023-09-19T06:10:44;100192.56;;;17.39;99.46
16525;BME280;8375;33.594;-117.718;2023-09-19T06:13:13;100188.47;;;17.36;100.00
16525;BME280;8375;33.594;-117.718;2023-09-19T06:15:42;100195.38;;;17.37;99.84
16525;BME280;8375;33.594;-117.718;2023-09-19T06:18:11;100202.72;;;17.34;100.00
16525;BME280;8375;33.594;-117.718;2023-09-19T06:20:48;100206.50;;;17.31;100.00
16525;BME280;8375;33.594;-117.718;2023-09-19T06:23:17;100203.22;;;17.29;100.00
16525;BME280;8375;33.594;-117.718;2023-09-19T06:25:46;100202.72;;;17.25;100.00
16525;BME280;8375;33.594;-117.718;2023-09-19T06:28:15;100206.66;;;17.21;100.00
16525;BME280;8375;33.594;-117.718;2023-09-19T06:30:49;100208.47;;;17.21;100.00
16525;BME280;8375;33.594;-117.718;2023-09-19T06:33:18;100206.00;;;17.19;100.00
16525;BME280;8375;33.594;-117.718;2023-09-19T06:35:49;100206.00;;;17.19;100.00
16525;BME280;8375;33.594;-117.718;2023-09-19T06:38:19;100203.03;;;17.14;100.00
16525;BME280;8375;33.594;-117.718;2023-09-19T06:40:48;100196.31;;;17.11;100.00
16525;BME280;8375;33.594;-117.718;2023-09-19T06:43:17;100201.56;;;17.11;100.00
16525;BME280;8375;33.594;-117.718;2023-09-19T06:45:46;100199.25;;;17.08;100.00
16525;BME280;8375;33.594;-117.718;2023-09-19T06:48:15;100207.28;;;17.07;100.00
16525;BME280;8375;33.594;-117.718;2023-09-19T06:50:43;100195.16;;;17.06;100.00
16525;BME280;8375;33.594;-117.718;2023-09-19T06:53:16;100194.47;;;17.04;100.00
16525;BME280;8375;33.594;-117.718;2023-09-19T06:55:45;100195.78;;;16.99;100.00
16525;BME280;8375;33.594;-117.718;2023-09-19T06:58:14;100198.41;;;16.99;100.00
16525;BME280;8375;33.594;-117.718;2023-09-19T07:00:43;100201.03;;;16.99;100.00
16525;BME280;8375;33.594;-117.718;2023-09-19T07:03:14;100199.69;;;16.95;100.00
16525;BME280;8375;33.594;-117.718;2023-09-19T07:05:47;100199.19;;;16.92;100.00
16525;BME280;8375;33.594;-117.718;2023-09-19T07:08:17;100198.88;;;16.95;100.00
16525;BME280;8375;33.594;-117.718;2023-09-19T07:10:46;100201.97;;;16.90;100.00
16525;BME280;8375;33.594;-117.718;2023-09-19T07:13:20;100197.69;;;16.89;100.00
16525;BME280;8375;33.594;-117.718;2023-09-19T07:15:51;100192.78;;;16.86;100.00
16525;BME280;8375;33.594;-117.718;2023-09-19T07:18:21;100191.97;;;16.85;100.00
16525;BME280;8375;33.594;-117.718;2023-09-19T07:20:49;100199.16;;;16.83;100.00
16525;BME280;8375;33.594;-117.718;2023-09-19T07:23:21;100199.31;;;16.82;100.00
16525;BME280;8375;33.594;-117.718;2023-09-19T07:25:50;100200.94;;;16.83;100.00
16525;BME280;8375;33.594;-117.718;2023-09-19T07:28:19;100201.13;;;16.81;100.00
16525;BME280;8375;33.594;-117.718;2023-09-19T07:30:48;100197.53;;;16.82;100.00
16525;BME280;8375;33.594;-117.718;2023-09-19T07:33:16;100204.06;;;16.78;100.00
16525;BME280;8375;33.594;-117.718;2023-09-19T07:35:48;100205.50;;;16.72;100.00
16525;BME280;8375;33.594;-117.718;2023-09-19T07:38:17;100206.00;;;16.68;100.00
16525;BME280;8375;33.594;-117.718;2023-09-19T07:40:47;100203.38;;;16.68;100.00
16525;BME280;8375;33.594;-117.718;2023-09-19T07:43:16;100200.75;;;16.68;100.00
16525;BME280;8375;33.594;-117.718;2023-09-19T07:45:45;100206.66;;;16.70;100.00
16525;BME280;8375;33.594;-117.718;2023-09-19T07:48:14;100204.66;;;16.64;100.00
16525;BME280;8375;33.594;-117.718;2023-09-19T07:50:43;100203.34;;;16.60;100.00
16525;BME280;8375;33.594;-117.718;2023-09-19T07:53:12;100201.53;;;16.60;100.00
16525;BME280;8375;33.594;-117.718;2023-09-19T07:55:43;100200.84;;;16.58;100.00
16525;BME280;8375;33.594;-117.718;2023-09-19T07:58:16;100195.94;;;16.55;100.00
16525;BME280;8375;33.594;-117.718;2023-09-19T08:00:44;100187.72;;;16.50;100.00
16525;BME280;8375;33.594;-117.718;2023-09-19T08:03:13;100191.84;;;16.52;100.00
16525;BME280;8375;33.594;-117.718;2023-09-19T08:05:42;100186.06;;;16.49;100.00
16525;BME280;8375;33.594;-117.718;2023-09-19T08:08:12;100186.75;;;16.51;100.00
16525;BME280;8375;33.594;-117.718;2023-09-19T08:10:41;100182.31;;;16.43;100.00
16525;BME280;8375;33.594;-117.718;2023-09-19T08:13:12;100192.59;;;16.45;100.00
16525;BME280;8375;33.594;-117.718;2023-09-19T08:15:45;100183.41;;;16.40;100.00
16525;BME280;8375;33.594;-117.718;2023-09-19T08:18:14;100182.75;;;16.38;100.00
16525;BME280;8375;33.594;-117.718;2023-09-19T08:20:43;100187.03;;;16.39;100.00
16525;BME280;8375;33.594;-117.718;2023-09-19T08:23:17;100193.41;;;16.37;100.00
16525;BME280;8375;33.594;-117.718;2023-09-19T08:25:47;100186.00;;;16.32;100.00
16525;BME280;8375;33.594;-117.718;2023-09-19T08:28:16;100184.66;;;16.28;100.00
16525;BME280;8375;33.594;-117.718;2023-09-19T08:30:51;100182.38;;;16.25;100.00
16525;BME280;8375;33.594;-117.718;2023-09-19T08:33:21;100185.16;;;16.23;100.00
16525;BME280;8375;33.594;-117.718;2023-09-19T08:35:49;100175.66;;;16.22;100.00
16525;BME280;8375;33.594;-117.718;2023-09-19T08:38:18;100183.34;;;16.24;100.00
16525;BME280;8375;33.594;-117.718;2023-09-19T08:40:47;100182.06;;;16.28;100.00
16525;BME280;8375;33.594;-117.718;2023-09-19T08:43:16;100172.72;;;16.25;100.00
16525;BME280;8375;33.594;-117.718;2023-09-19T08:45:44;100178.59;;;16.19;100.00
16525;BME280;8375;33.594;-117.718;2023-09-19T08:48:26;100174.94;;;16.12;100.00
16525;BME280;8375;33.594;-117.718;2023-09-19T08:50:58;100186.84;;;16.06;100.00
16525;BME280;8375;33.594;-117.718;2023-09-19T08:53:41;100174.41;;;16.08;100.00
16525;BME280;8375;33.594;-117.718;2023-09-19T08:56:13;100177.34;;;16.05;100.00
16525;BME280;8375;33.594;-117.718;2023-09-19T08:58:45;100169.81;;;16.02;100.00
16525;BME280;8375;33.594;-117.718;2023-09-19T09:01:16;100178.78;;;16.00;100.00
16525;BME280;8375;33.594;-117.718;2023-09-19T09:03:53;100164.72;;;16.01;100.00
16525;BME280;8375;33.594;-117.718;2023-09-19T09:06:22;100172.72;;;15.99;100.00
16525;BME280;8375;33.594;-117.718;2023-09-19T09:08:51;100171.56;;;15.93;100.00
16525;BME280;8375;33.594;-117.718;2023-09-19T09:11:21;100172.06;;;15.97;100.00
16525;BME280;8375;33.594;-117.718;2023-09-19T09:13:49;100170.19;;;15.89;100.00
16525;BME280;8375;33.594;-117.718;2023-09-19T09:16:18;100170.63;;;15.84;100.00
16525;BME280;8375;33.594;-117.718;2023-09-19T09:18:47;100169.97;;;15.82;100.00
16525;BME280;8375;33.594;-117.718;2023-09-19T09:21:20;100166.91;;;15.87;100.00
16525;BME280;8375;33.594;-117.718;2023-09-19T09:23:49;100164.28;;;15.87;100.00
16525;BME280;8375;33.594;-117.718;2023-09-19T09:26:41;100169.66;;;15.86;100.00
16525;BME280;8375;33.594;-117.718;2023-09-19T09:29:10;100160.63;;;15.80;100.00
16525;BME280;8375;33.594;-117.718;2023-09-19T09:31:39;100158.47;;;15.75;100.00
16525;BME280;8375;33.594;-117.718;2023-09-19T09:34:09;100156.34;;;15.79;100.00
16525;BME280;8375;33.594;-117.718;2023-09-19T09:36:42;100156.00;;;15.74;100.00
16525;BME280;8375;33.594;-117.718;2023-09-19T09:39:11;100153.31;;;15.65;100.00
16525;BME280;8375;33.594;-117.718;2023-09-19T09:41:51;100156.53;;;15.59;100.00
16525;BME280;8375;33.594;-117.718;2023-09-19T09:44:19;100150.50;;;15.59;100.00
16525;BME280;8375;33.594;-117.718;2023-09-19T09:46:48;100157.50;;;15.58;100.00
16525;BME280;8375;33.594;-117.718;2023-09-19T09:49:48;100150.81;;;15.55;100.00
16525;BME280;8375;33.594;-117.718;2023-09-19T09:52:44;100141.44;;;15.53;100.00
16525;BME280;8375;33.594;-117.718;2023-09-19T09:55:14;100143.75;;;15.56;100.00
16525;BME280;8375;33.594;-117.718;2023-09-19T09:57:45;100145.72;;;15.54;100.00
16525;BME280;8375;33.594;-117.718;2023-09-19T10:00:14;100142.28;;;15.53;100.00
16525;BME280;8375;33.594;-117.718;2023-09-19T10:02:47;100139.44;;;15.47;100.00
16525;BME280;8375;33.594;-117.718;2023-09-19T10:05:16;100133.53;;;15.45;100.00
16525;BME280;8375;33.594;-117.718;2023-09-19T10:07:56;100126.16;;;15.40;100.00
16525;BME280;8375;33.594;-117.718;2023-09-19T10:10:40;100124.53;;;15.39;100.00
16525;BME280;8375;33.594;-117.718;2023-09-19T10:13:20;100127.13;;;15.39;100.00
16525;BME280;8375;33.594;-117.718;2023-09-19T10:15:50;100134.16;;;15.38;100.00
16525;BME280;8375;33.594;-117.718;2023-09-19T10:18:22;100121.38;;;15.35;100.00
16525;BME280;8375;33.594;-117.718;2023-09-19T10:20:52;100118.75;;;15.35;100.00
16525;BME280;8375;33.594;-117.718;2023-09-19T10:23:23;100121.38;;;15.35;100.00
16525;BME280;8375;33.594;-117.718;2023-09-19T10:25:56;100119.06;;;15.32;100.00
16525;BME280;8375;33.594;-117.718;2023-09-19T10:28:28;100118.91;;;15.34;100.00
16525;BME280;8375;33.594;-117.718;2023-09-19T10:31:00;100113.16;;;15.30;100.00
16525;BME280;8375;33.594;-117.718;2023-09-19T10:33:36;100109.88;;;15.28;100.00
16525;BME280;8375;33.594;-117.718;2023-09-19T10:36:09;100112.66;;;15.27;100.00
16525;BME280;8375;33.594;-117.718;2023-09-19T10:38:43;100108.69;;;15.22;100.00
16525;BME280;8375;33.594;-117.718;2023-09-19T10:41:14;100104.75;;;15.18;100.00
16525;BME280;8375;33.594;-117.718;2023-09-19T10:43:46;100100.31;;;15.19;100.00
16525;BME280;8375;33.594;-117.718;2023-09-19T10:46:16;100101.44;;;15.16;100.00
16525;BME280;8375;33.594;-117.718;2023-09-19T10:48:46;100102.72;;;15.12;100.00
16525;BME280;8375;33.594;-117.718;2023-09-19T10:51:19;100110.28;;;15.15;100.00
16525;BME280;8375;33.594;-117.718;2023-09-19T10:53:54;100102.56;;;15.14;100.00
16525;BME280;8375;33.594;-117.718;2023-09-19T10:56:33;100109.72;;;15.11;100.00
16525;BME280;8375;33.594;-117.718;2023-09-19T10:59:07;100102.19;;;15.08;100.00
16525;BME280;8375;33.594;-117.718;2023-09-19T11:01:46;100101.38;;;15.08;100.00
16525;BME280;8375;33.594;-117.718;2023-09-19T11:04:38;100105.19;;;15.14;100.00
16525;BME280;8375;33.594;-117.718;2023-09-19T11:07:08;100100.25;;;15.10;100.00
16525;BME280;8375;33.594;-117.718;2023-09-19T11:09:50;100100.25;;;15.10;100.00
16525;BME280;8375;33.594;-117.718;2023-09-19T11:12:50;100106.44;;;15.09;100.00
16525;BME280;8375;33.594;-117.718;2023-09-19T11:18:53;100098.91;;;15.06;100.00
16525;BME280;8375;33.594;-117.718;2023-09-19T11:21:52;100095.41;;;14.98;100.00
16525;BME280;8375;33.594;-117.718;2023-09-19T11:24:30;100092.94;;;14.96;100.00
16525;BME280;8375;33.594;-117.718;2023-09-19T11:27:21;100100.78;;;14.96;100.00
16525;BME280;8375;33.594;-117.718;2023-09-19T11:30:26;100094.19;;;14.92;100.00
16525;BME280;8375;33.594;-117.718;2023-09-19T11:33:18;100092.84;;;14.88;100.00
16525;BME280;8375;33.594;-117.718;2023-09-19T11:36:03;100094.66;;;14.87;100.00
16525;BME280;8375;33.594;-117.718;2023-09-19T11:39:02;100086.53;;;14.90;100.00
16525;BME280;8375;33.594;-117.718;2023-09-19T11:41:40;100089.81;;;14.92;100.00
16525;BME280;8375;33.594;-117.718;2023-09-19T11:44:35;100084.88;;;14.89;100.00
16525;BME280;8375;33.594;-117.718;2023-09-19T11:47:06;100087.13;;;14.84;100.00
16525;BME280;8375;33.594;-117.718;2023-09-19T11:49:35;100086.56;;;14.80;100.00
16525;BME280;8375;33.594;-117.718;2023-09-19T11:52:09;100084.94;;;14.79;100.00
16525;BME280;8375;33.594;-117.718;2023-09-19T11:54:38;100078.53;;;14.74;100.00
16525;BME280;8375;33.594;-117.718;2023-09-19T11:57:09;100081.44;;;14.71;100.00
16525;BME280;8375;33.594;-117.718;2023-09-19T11:59:42;100073.69;;;14.69;100.00
16525;BME280;8375;33.594;-117.718;2023-09-19T12:02:27;100076.47;;;14.67;100.00
16525;BME280;8375;33.594;-117.718;2023-09-19T12:04:58;100073.69;;;14.69;100.00
16525;BME280;8375;33.594;-117.718;2023-09-19T12:07:26;100072.47;;;14.73;100.00
16525;BME280;8375;33.594;-117.718;2023-09-19T12:10:04;100072.06;;;14.68;100.00
16525;BME280;8375;33.594;-117.718;2023-09-19T12:12:38;100070.28;;;14.69;100.00
16525;BME280;8375;33.594;-117.718;2023-09-19T12:15:10;100079.38;;;14.64;100.00
16525;BME280;8375;33.594;-117.718;2023-09-19T12:17:41;100076.38;;;14.59;100.00
16525;BME280;8375;33.594;-117.718;2023-09-19T12:20:11;100085.31;;;14.57;100.00
16525;BME280;8375;33.594;-117.718;2023-09-19T12:22:40;100093.84;;;14.59;100.00
16525;BME280;8375;33.594;-117.718;2023-09-19T12:25:10;100083.16;;;14.52;100.00
16525;BME280;8375;33.594;-117.718;2023-09-19T12:27:43;100083.59;;;14.47;100.00
16525;BME280;8375;33.594;-117.718;2023-09-19T12:30:15;100084.72;;;14.45;100.00
16525;BME280;8375;33.594;-117.718;2023-09-19T12:32:46;100088.59;;;14.41;100.00
16525;BME280;8375;33.594;-117.718;2023-09-19T12:35:27;100089.78;;;14.46;100.00
16525;BME280;8375;33.594;-117.718;2023-09-19T12:37:56;100092.00;;;14.41;100.00
16525;BME280;8375;33.594;-117.718;2023-09-19T12:40:25;100086.28;;;14.37;100.00
16525;BME280;8375;33.594;-117.718;2023-09-19T12:42:55;100086.94;;;14.40;100.00
16525;BME280;8375;33.594;-117.718;2023-09-19T12:45:26;100089.69;;;14.38;100.00
16525;BME280;8375;33.594;-117.718;2023-09-19T12:48:18;100089.00;;;14.36;100.00
16525;BME280;8375;33.594;-117.718;2023-09-19T12:51:05;100086.94;;;14.40;100.00
16525;BME280;8375;33.594;-117.718;2023-09-19T12:53:37;100089.56;;;14.40;100.00